Hrossey — VSTY6 — position and weather

sailwx.info

Track history (hours):
 
Tides and Currents Weather Stations Pressure Air Temp Water Temp Dewpoint Dewpoint Depression Visibility Wind Speed Wind Dir Waves Ship Positions

Hrossey

Operator: NorthLink Orkey & Shetland Ferries Ltd

Last reported at 2017-Apr-24 21:00 UTC. Time now 2017-Apr-24 21:02 UTC.
Position N 59°01' W 002°50'.

Length 125 m; draft 5.4 m.

Type: Passenger vessel. MMSI: 235448000.

Date/timePositionNaut miles runAvg speedWind from/ knotsBaromVisibWave heightAir tempDewpointWater temp
2017-Apr-24 21:00N 59°01' W 002°50'12 0.6
2017-Apr-24 00:10N 59°04' W 002°28'317.3
2017-Apr-24 00:00N 59°02' W 002°31'816.7
2017-Apr-23 23:30N 59°01' W 002°47'6 4.7
2017-Apr-23 22:17N 58°60' W 002°58'1 5.5
2017-Apr-23 22:00N 59°01' W 002°57'1020.7
2017-Apr-23 21:30N 58°57' W 002°39'8522.5
2017-Apr-23 17:44N 57°38' W 001°42'523.8
2017-Apr-23 17:30N 57°33' W 001°40'1423.6
2017-Apr-23 16:55N 57°20' W 001°50'1024.2
2017-Apr-23 16:30N 57°11' W 001°59'4 8.2
2017-Apr-23 16:00N 57°09' W 002°05'0 0.0
2017-Apr-23 15:30N 57°09' W 002°05'0 0.0
2017-Apr-23 15:00N 57°09' W 002°05'0 0.0
2017-Apr-23 14:00N 57°09' W 002°05'0 0.0
2017-Apr-23 13:30N 57°09' W 002°05'0 0.0
2017-Apr-23 13:01N 57°09' W 002°05'0 0.0
2017-Apr-23 12:30N 57°09' W 002°05'0 0.0
2017-Apr-23 12:01N 57°09' W 002°05'0 0.0
2017-Apr-23 11:30N 57°09' W 002°05'0 0.0
2017-Apr-23 11:00N 57°09' W 002°05'0 0.0
2017-Apr-23 10:30N 57°09' W 002°05'0 0.0
2017-Apr-23 10:00N 57°09' W 002°05'0 0.0
2017-Apr-23 09:30N 57°09' W 002°05'0 0.0
2017-Apr-23 09:00N 57°09' W 002°05'0 0.0
2017-Apr-23 08:30N 57°09' W 002°05'0 0.0
2017-Apr-23 07:59N 57°09' W 002°05'0 0.0
2017-Apr-23 07:31N 57°09' W 002°05'0 0.0
2017-Apr-23 07:00N 57°09' W 002°05'0 0.0
2017-Apr-23 06:30N 57°09' W 002°05'0 0.0
2017-Apr-23 06:00N 57°09' W 002°05'1 1.0
2017-Apr-23 05:30N 57°09' W 002°05'612.9
2017-Apr-23 05:00N 57°13' W 001°56'1317.9
2017-Apr-23 04:18N 57°23' W 001°42'412.6
2017-Apr-23 04:00N 57°26' W 001°38'612.0
2017-Apr-23 03:30N 57°32' W 001°36'16 0.5
2017-Apr-21 21:29N 57°48' W 001°37'511.3
2017-Apr-21 21:00N 57°43' W 001°37'611.2
2017-Apr-21 20:30N 57°37' W 001°37'611.1
2017-Apr-21 20:00N 57°32' W 001°37'611.2
2017-Apr-21 19:30N 57°26' W 001°39'612.5
2017-Apr-21 19:00N 57°21' W 001°45'713.1
2017-Apr-21 18:30N 57°16' W 001°52'816.3
2017-Apr-21 18:00N 57°09' W 002°02'2 4.2
2017-Apr-21 17:31N 57°09' W 002°05'0 0.0
2017-Apr-21 17:01N 57°09' W 002°05'0 0.0
2017-Apr-21 16:30N 57°09' W 002°05'0 0.0
2017-Apr-21 16:00N 57°09' W 002°05'0 0.0
2017-Apr-21 15:30N 57°09' W 002°05'0 0.0
2017-Apr-21 15:00N 57°09' W 002°05'0 0.0
2017-Apr-21 14:31N 57°09' W 002°05'0 0.0
2017-Apr-21 13:30N 57°09' W 002°05'0 0.0
2017-Apr-21 13:00N 57°09' W 002°05'0 0.0
2017-Apr-21 12:30N 57°09' W 002°05'0 0.0
2017-Apr-21 12:00N 57°09' W 002°05'0 0.0
2017-Apr-21 11:31N 57°09' W 002°05'0 0.0
2017-Apr-21 11:00N 57°09' W 002°05'0 0.0
2017-Apr-21 10:30N 57°09' W 002°05'0 0.0
2017-Apr-21 10:00N 57°09' W 002°05'0 0.0
2017-Apr-21 09:30N 57°09' W 002°05'0 0.0
2017-Apr-21 09:00N 57°09' W 002°05'0 0.0
2017-Apr-21 08:30N 57°09' W 002°05'0 0.0
2017-Apr-21 08:00N 57°09' W 002°05'0 0.0
2017-Apr-21 07:30N 57°09' W 002°05'0 0.0
2017-Apr-21 07:01N 57°09' W 002°05'0 0.0
2017-Apr-21 06:30N 57°09' W 002°05'0 0.0
2017-Apr-21 06:01N 57°09' W 002°05'0 0.9
2017-Apr-21 05:30N 57°09' W 002°05'714.2
2017-Apr-21 05:01N 57°13' W 001°55'815.6
2017-Apr-21 04:29N 57°20' W 001°45'612.8
2017-Apr-21 04:00N 57°25' W 001°39'611.1
2017-Apr-21 03:27N 57°30' W 001°34'613.9
2017-Apr-21 03:00N 57°36' W 001°34'14 0.5
2017-Apr-19 21:02N 57°50' W 001°37'016.0
2017-Apr-19 21:01N 57°50' W 001°37'1015.3
2017-Apr-19 20:20N 57°40' W 001°37'514.9
2017-Apr-19 20:01N 57°35' W 001°37'714.8
2017-Apr-19 19:30N 57°27' W 001°37'1214.4
2017-Apr-19 18:42N 57°18' W 001°49'314.9
2017-Apr-19 18:31N 57°16' W 001°53'816.7
2017-Apr-19 18:00N 57°09' W 002°03'2 3.2
2017-Apr-19 17:30N 57°09' W 002°05'0 0.0
2017-Apr-19 17:01N 57°09' W 002°05'0 0.0
2017-Apr-19 16:30N 57°09' W 002°05'0 0.0
2017-Apr-19 16:00N 57°09' W 002°05'0 0.0
2017-Apr-19 15:30N 57°09' W 002°05'0 0.0
2017-Apr-19 15:00N 57°09' W 002°05'0 0.0
2017-Apr-19 14:30N 57°09' W 002°05'0 0.0
2017-Apr-19 13:31N 57°09' W 002°05'0 0.0
2017-Apr-19 13:00N 57°09' W 002°05'0 0.0
2017-Apr-19 12:30N 57°09' W 002°05'0 0.0
2017-Apr-19 12:00N 57°09' W 002°05'0 0.0
2017-Apr-19 11:30N 57°09' W 002°05'0 0.0
2017-Apr-19 11:00N 57°09' W 002°05'0 0.0
2017-Apr-19 10:30N 57°09' W 002°05'0 0.0
2017-Apr-19 10:01N 57°09' W 002°05'0 0.0
2017-Apr-19 09:31N 57°09' W 002°05'0 0.0
2017-Apr-19 09:00N 57°09' W 002°05'0 0.0
2017-Apr-19 08:31N 57°09' W 002°05'0 0.0
2017-Apr-19 08:01N 57°09' W 002°05'0 0.0
2017-Apr-19 07:30N 57°09' W 002°05'0 0.0
2017-Apr-19 07:00N 57°09' W 002°05'0 0.0
2017-Apr-19 06:31N 57°09' W 002°05'0 0.0
2017-Apr-19 06:00N 57°09' W 002°05'1 1.3
2017-Apr-19 05:30N 57°08' W 002°04'612.0
2017-Apr-19 05:01N 57°13' W 001°56'1117.2
2017-Apr-19 04:21N 57°22' W 001°45'617.1
2017-Apr-19 04:00N 57°28' W 001°41'916.8
2017-Apr-19 03:29N 57°36' W 001°37'1 0.0
2017-Apr-17 20:04N 57°37' W 001°37'116.1
2017-Apr-17 20:00N 57°36' W 001°37'815.7
2017-Apr-17 19:30N 57°29' W 001°40'815.8
2017-Apr-17 19:00N 57°21' W 001°46'815.5
2017-Apr-17 18:30N 57°15' W 001°54'714.5
2017-Apr-17 18:00N 57°09' W 002°02'2 3.5
2017-Apr-17 17:31N 57°09' W 002°05'0 0.0
2017-Apr-17 17:00N 57°09' W 002°05'0 0.0
2017-Apr-17 16:31N 57°09' W 002°05'0 0.0
2017-Apr-17 16:00N 57°09' W 002°05'0 0.0
2017-Apr-17 15:30N 57°09' W 002°05'0 0.0
2017-Apr-17 15:01N 57°09' W 002°05'0 0.0
2017-Apr-17 14:01N 57°09' W 002°05'0 0.0
2017-Apr-17 13:30N 57°09' W 002°05'0 0.0
2017-Apr-17 13:01N 57°09' W 002°05'0 0.0
2017-Apr-17 12:30N 57°09' W 002°05'0 0.0
2017-Apr-17 12:00N 57°09' W 002°05'0 0.0
2017-Apr-17 11:31N 57°09' W 002°05'0 0.0
2017-Apr-17 11:00N 57°09' W 002°05'0 0.0
2017-Apr-17 10:30N 57°09' W 002°05'0 0.0
2017-Apr-17 10:00N 57°09' W 002°05'0 0.0
2017-Apr-17 09:30N 57°09' W 002°05'0 0.0
2017-Apr-17 09:00N 57°09' W 002°05'0 0.0
2017-Apr-17 08:31N 57°09' W 002°05'0 0.0
2017-Apr-17 08:00N 57°09' W 002°05'0 0.0
2017-Apr-17 07:31N 57°09' W 002°05'0 0.0
2017-Apr-17 07:01N 57°09' W 002°05'0 0.0
2017-Apr-17 06:31N 57°09' W 002°05'0 0.0
2017-Apr-17 06:00N 57°09' W 002°05'1 1.1
2017-Apr-17 05:31N 57°09' W 002°04'612.8
2017-Apr-17 05:00N 57°13' W 001°56'714.1
2017-Apr-17 04:30N 57°19' W 001°48'714.2
2017-Apr-17 04:00N 57°25' W 001°41'714.1
2017-Apr-17 03:30N 57°31' W 001°35'96 3.5
2017-Apr-16 00:03N 59°03' W 002°27'112.8
2017-Apr-16 00:00N 59°02' W 002°28'612.8
2017-Apr-15 23:30N 59°00' W 002°40'714.8
2017-Apr-15 23:00N 59°01' W 002°54'2 4.4
2017-Apr-15 22:27N 58°60' W 002°58'0 0.0
2017-Apr-15 21:58N 58°60' W 002°58'613.5
2017-Apr-15 21:30N 59°00' W 002°46'8121.6
2017-Apr-15 17:46N 57°45' W 001°49'622.9
2017-Apr-15 17:30N 57°40' W 001°46'1122.7
2017-Apr-15 17:01N 57°29' W 001°42'1121.9
2017-Apr-15 16:30N 57°18' W 001°49'1121.9
2017-Apr-15 16:01N 57°10' W 002°01'2 4.9
2017-Apr-15 15:30N 57°09' W 002°05'0 0.0
2017-Apr-15 15:00N 57°09' W 002°05'0 0.0
2017-Apr-15 14:29N 57°09' W 002°05'0 0.0
2017-Apr-15 13:28N 57°09' W 002°05'0 0.0
2017-Apr-15 12:58N 57°09' W 002°05'0 0.0
2017-Apr-15 12:29N 57°09' W 002°05'0 0.0
2017-Apr-15 11:59N 57°09' W 002°05'0 0.0
2017-Apr-15 11:28N 57°09' W 002°05'0 0.0
2017-Apr-15 10:59N 57°09' W 002°05'0 0.0
2017-Apr-15 10:29N 57°09' W 002°05'0 0.0
2017-Apr-15 09:58N 57°09' W 002°05'0 0.0
2017-Apr-15 09:28N 57°09' W 002°05'0 0.0
2017-Apr-15 08:59N 57°09' W 002°05'0 0.0
2017-Apr-15 08:28N 57°09' W 002°05'0 0.0
2017-Apr-15 07:58N 57°09' W 002°05'0 0.0
2017-Apr-15 07:28N 57°09' W 002°05'0 0.0
2017-Apr-15 06:59N 57°09' W 002°05'0 0.0
2017-Apr-15 06:29N 57°09' W 002°05'0 0.0
2017-Apr-15 05:59N 57°09' W 002°05'1 1.2
2017-Apr-15 05:30N 57°08' W 002°04'713.3
2017-Apr-15 05:00N 57°13' W 001°56'1116.3
2017-Apr-15 04:18N 57°23' W 001°44'516.5
2017-Apr-15 04:00N 57°27' W 001°40'1321.3
2017-Apr-15 03:24N 57°40' W 001°44'8221.4
2017-Apr-14 23:34N 58°57' W 002°35'122.1
2017-Apr-14 23:30N 58°58' W 002°37'1121.5
2017-Apr-14 23:01N 59°01' W 002°57'2 1.4
2017-Apr-14 21:55N 58°60' W 002°58'0 0.0
2017-Apr-14 21:11N 58°60' W 002°58'  
Track history (hours):
 
Tides and Currents Weather Stations Pressure Air Temp Water Temp Dewpoint Dewpoint Depression Visibility Wind Speed Wind Dir Waves Ship Positions

Hrossey

Operator: NorthLink Orkey & Shetland Ferries Ltd

Last reported at 2017-Apr-24 21:00 UTC. Time now 2017-Apr-24 21:02 UTC.
Position N 59°01' W 002°50'.

Length 125 m; draft 5.4 m.

Type: Passenger vessel. MMSI: 235448000.

Date/timePositionNaut miles runAvg speedWind from/ knotsBaromVisibWave heightAir tempDewpointWater temp
2017-Apr-24 21:00N 59°01' W 002°50'12 0.6
2017-Apr-24 00:10N 59°04' W 002°28'317.3
2017-Apr-24 00:00N 59°02' W 002°31'816.7
2017-Apr-23 23:30N 59°01' W 002°47'6 4.7
2017-Apr-23 22:17N 58°60' W 002°58'1 5.5
2017-Apr-23 22:00N 59°01' W 002°57'1020.7
2017-Apr-23 21:30N 58°57' W 002°39'8522.5
2017-Apr-23 17:44N 57°38' W 001°42'523.8
2017-Apr-23 17:30N 57°33' W 001°40'1423.6
2017-Apr-23 16:55N 57°20' W 001°50'1024.2
2017-Apr-23 16:30N 57°11' W 001°59'4 8.2
2017-Apr-23 16:00N 57°09' W 002°05'0 0.0
2017-Apr-23 15:30N 57°09' W 002°05'0 0.0
2017-Apr-23 15:00N 57°09' W 002°05'0 0.0
2017-Apr-23 14:00N 57°09' W 002°05'0 0.0
2017-Apr-23 13:30N 57°09' W 002°05'0 0.0
2017-Apr-23 13:01N 57°09' W 002°05'0 0.0
2017-Apr-23 12:30N 57°09' W 002°05'0 0.0
2017-Apr-23 12:01N 57°09' W 002°05'0 0.0
2017-Apr-23 11:30N 57°09' W 002°05'0 0.0
2017-Apr-23 11:00N 57°09' W 002°05'0 0.0
2017-Apr-23 10:30N 57°09' W 002°05'0 0.0
2017-Apr-23 10:00N 57°09' W 002°05'0 0.0
2017-Apr-23 09:30N 57°09' W 002°05'0 0.0
2017-Apr-23 09:00N 57°09' W 002°05'0 0.0
2017-Apr-23 08:30N 57°09' W 002°05'0 0.0
2017-Apr-23 07:59N 57°09' W 002°05'0 0.0
2017-Apr-23 07:31N 57°09' W 002°05'0 0.0
2017-Apr-23 07:00N 57°09' W 002°05'0 0.0
2017-Apr-23 06:30N 57°09' W 002°05'0 0.0
2017-Apr-23 06:00N 57°09' W 002°05'1 1.0
2017-Apr-23 05:30N 57°09' W 002°05'612.9
2017-Apr-23 05:00N 57°13' W 001°56'1317.9
2017-Apr-23 04:18N 57°23' W 001°42'412.6
2017-Apr-23 04:00N 57°26' W 001°38'612.0
2017-Apr-23 03:30N 57°32' W 001°36'16 0.5
2017-Apr-21 21:29N 57°48' W 001°37'511.3
2017-Apr-21 21:00N 57°43' W 001°37'611.2
2017-Apr-21 20:30N 57°37' W 001°37'611.1
2017-Apr-21 20:00N 57°32' W 001°37'611.2
2017-Apr-21 19:30N 57°26' W 001°39'612.5
2017-Apr-21 19:00N 57°21' W 001°45'713.1
2017-Apr-21 18:30N 57°16' W 001°52'816.3
2017-Apr-21 18:00N 57°09' W 002°02'2 4.2
2017-Apr-21 17:31N 57°09' W 002°05'0 0.0
2017-Apr-21 17:01N 57°09' W 002°05'0 0.0
2017-Apr-21 16:30N 57°09' W 002°05'0 0.0
2017-Apr-21 16:00N 57°09' W 002°05'0 0.0
2017-Apr-21 15:30N 57°09' W 002°05'0 0.0
2017-Apr-21 15:00N 57°09' W 002°05'0 0.0
2017-Apr-21 14:31N 57°09' W 002°05'0 0.0
2017-Apr-21 13:30N 57°09' W 002°05'0 0.0
2017-Apr-21 13:00N 57°09' W 002°05'0 0.0
2017-Apr-21 12:30N 57°09' W 002°05'0 0.0
2017-Apr-21 12:00N 57°09' W 002°05'0 0.0
2017-Apr-21 11:31N 57°09' W 002°05'0 0.0
2017-Apr-21 11:00N 57°09' W 002°05'0 0.0
2017-Apr-21 10:30N 57°09' W 002°05'0 0.0
2017-Apr-21 10:00N 57°09' W 002°05'0 0.0
2017-Apr-21 09:30N 57°09' W 002°05'0 0.0
2017-Apr-21 09:00N 57°09' W 002°05'0 0.0
2017-Apr-21 08:30N 57°09' W 002°05'0 0.0
2017-Apr-21 08:00N 57°09' W 002°05'0 0.0
2017-Apr-21 07:30N 57°09' W 002°05'0 0.0
2017-Apr-21 07:01N 57°09' W 002°05'0 0.0
2017-Apr-21 06:30N 57°09' W 002°05'0 0.0
2017-Apr-21 06:01N 57°09' W 002°05'0 0.9
2017-Apr-21 05:30N 57°09' W 002°05'714.2
2017-Apr-21 05:01N 57°13' W 001°55'815.6
2017-Apr-21 04:29N 57°20' W 001°45'612.8
2017-Apr-21 04:00N 57°25' W 001°39'611.1
2017-Apr-21 03:27N 57°30' W 001°34'613.9
2017-Apr-21 03:00N 57°36' W 001°34'14 0.5
2017-Apr-19 21:02N 57°50' W 001°37'016.0
2017-Apr-19 21:01N 57°50' W 001°37'1015.3
2017-Apr-19 20:20N 57°40' W 001°37'514.9
2017-Apr-19 20:01N 57°35' W 001°37'714.8
2017-Apr-19 19:30N 57°27' W 001°37'1214.4
2017-Apr-19 18:42N 57°18' W 001°49'314.9
2017-Apr-19 18:31N 57°16' W 001°53'816.7
2017-Apr-19 18:00N 57°09' W 002°03'2 3.2
2017-Apr-19 17:30N 57°09' W 002°05'0 0.0
2017-Apr-19 17:01N 57°09' W 002°05'0 0.0
2017-Apr-19 16:30N 57°09' W 002°05'0 0.0
2017-Apr-19 16:00N 57°09' W 002°05'0 0.0
2017-Apr-19 15:30N 57°09' W 002°05'0 0.0
2017-Apr-19 15:00N 57°09' W 002°05'0 0.0
2017-Apr-19 14:30N 57°09' W 002°05'0 0.0
2017-Apr-19 13:31N 57°09' W 002°05'0 0.0
2017-Apr-19 13:00N 57°09' W 002°05'0 0.0
2017-Apr-19 12:30N 57°09' W 002°05'0 0.0
2017-Apr-19 12:00N 57°09' W 002°05'0 0.0
2017-Apr-19 11:30N 57°09' W 002°05'0 0.0
2017-Apr-19 11:00N 57°09' W 002°05'0 0.0
2017-Apr-19 10:30N 57°09' W 002°05'0 0.0
2017-Apr-19 10:01N 57°09' W 002°05'0 0.0
2017-Apr-19 09:31N 57°09' W 002°05'0 0.0
2017-Apr-19 09:00N 57°09' W 002°05'0 0.0
2017-Apr-19 08:31N 57°09' W 002°05'0 0.0
2017-Apr-19 08:01N 57°09' W 002°05'0 0.0
2017-Apr-19 07:30N 57°09' W 002°05'0 0.0
2017-Apr-19 07:00N 57°09' W 002°05'0 0.0
2017-Apr-19 06:31N 57°09' W 002°05'0 0.0
2017-Apr-19 06:00N 57°09' W 002°05'1 1.3
2017-Apr-19 05:30N 57°08' W 002°04'612.0
2017-Apr-19 05:01N 57°13' W 001°56'1117.2
2017-Apr-19 04:21N 57°22' W 001°45'617.1
2017-Apr-19 04:00N 57°28' W 001°41'916.8
2017-Apr-19 03:29N 57°36' W 001°37'1 0.0
2017-Apr-17 20:04N 57°37' W 001°37'116.1
2017-Apr-17 20:00N 57°36' W 001°37'815.7
2017-Apr-17 19:30N 57°29' W 001°40'815.8
2017-Apr-17 19:00N 57°21' W 001°46'815.5
2017-Apr-17 18:30N 57°15' W 001°54'714.5
2017-Apr-17 18:00N 57°09' W 002°02'2 3.5
2017-Apr-17 17:31N 57°09' W 002°05'0 0.0
2017-Apr-17 17:00N 57°09' W 002°05'0 0.0
2017-Apr-17 16:31N 57°09' W 002°05'0 0.0
2017-Apr-17 16:00N 57°09' W 002°05'0 0.0
2017-Apr-17 15:30N 57°09' W 002°05'0 0.0
2017-Apr-17 15:01N 57°09' W 002°05'0 0.0
2017-Apr-17 14:01N 57°09' W 002°05'0 0.0
2017-Apr-17 13:30N 57°09' W 002°05'0 0.0
2017-Apr-17 13:01N 57°09' W 002°05'0 0.0
2017-Apr-17 12:30N 57°09' W 002°05'0 0.0
2017-Apr-17 12:00N 57°09' W 002°05'0 0.0
2017-Apr-17 11:31N 57°09' W 002°05'0 0.0
2017-Apr-17 11:00N 57°09' W 002°05'0 0.0
2017-Apr-17 10:30N 57°09' W 002°05'0 0.0
2017-Apr-17 10:00N 57°09' W 002°05'0 0.0
2017-Apr-17 09:30N 57°09' W 002°05'0 0.0
2017-Apr-17 09:00N 57°09' W 002°05'0 0.0
2017-Apr-17 08:31N 57°09' W 002°05'0 0.0
2017-Apr-17 08:00N 57°09' W 002°05'0 0.0
2017-Apr-17 07:31N 57°09' W 002°05'0 0.0
2017-Apr-17 07:01N 57°09' W 002°05'0 0.0
2017-Apr-17 06:31N 57°09' W 002°05'0 0.0
2017-Apr-17 06:00N 57°09' W 002°05'1 1.1
2017-Apr-17 05:31N 57°09' W 002°04'612.8
2017-Apr-17 05:00N 57°13' W 001°56'714.1
2017-Apr-17 04:30N 57°19' W 001°48'714.2
2017-Apr-17 04:00N 57°25' W 001°41'714.1
2017-Apr-17 03:30N 57°31' W 001°35'96 3.5
2017-Apr-16 00:03N 59°03' W 002°27'112.8
2017-Apr-16 00:00N 59°02' W 002°28'612.8
2017-Apr-15 23:30N 59°00' W 002°40'714.8
2017-Apr-15 23:00N 59°01' W 002°54'2 4.4
2017-Apr-15 22:27N 58°60' W 002°58'0 0.0
2017-Apr-15 21:58N 58°60' W 002°58'613.5
2017-Apr-15 21:30N 59°00' W 002°46'8121.6
2017-Apr-15 17:46N 57°45' W 001°49'622.9
2017-Apr-15 17:30N 57°40' W 001°46'1122.7
2017-Apr-15 17:01N 57°29' W 001°42'1121.9
2017-Apr-15 16:30N 57°18' W 001°49'1121.9
2017-Apr-15 16:01N 57°10' W 002°01'2 4.9
2017-Apr-15 15:30N 57°09' W 002°05'0 0.0
2017-Apr-15 15:00N 57°09' W 002°05'0 0.0
2017-Apr-15 14:29N 57°09' W 002°05'0 0.0
2017-Apr-15 13:28N 57°09' W 002°05'0 0.0
2017-Apr-15 12:58N 57°09' W 002°05'0 0.0
2017-Apr-15 12:29N 57°09' W 002°05'0 0.0
2017-Apr-15 11:59N 57°09' W 002°05'0 0.0
2017-Apr-15 11:28N 57°09' W 002°05'0 0.0
2017-Apr-15 10:59N 57°09' W 002°05'0 0.0
2017-Apr-15 10:29N 57°09' W 002°05'0 0.0
2017-Apr-15 09:58N 57°09' W 002°05'0 0.0
2017-Apr-15 09:28N 57°09' W 002°05'0 0.0
2017-Apr-15 08:59N 57°09' W 002°05'0 0.0
2017-Apr-15 08:28N 57°09' W 002°05'0 0.0
2017-Apr-15 07:58N 57°09' W 002°05'0 0.0
2017-Apr-15 07:28N 57°09' W 002°05'0 0.0
2017-Apr-15 06:59N 57°09' W 002°05'0 0.0
2017-Apr-15 06:29N 57°09' W 002°05'0 0.0
2017-Apr-15 05:59N 57°09' W 002°05'1 1.2
2017-Apr-15 05:30N 57°08' W 002°04'713.3
2017-Apr-15 05:00N 57°13' W 001°56'1116.3
2017-Apr-15 04:18N 57°23' W 001°44'516.5
2017-Apr-15 04:00N 57°27' W 001°40'1321.3
2017-Apr-15 03:24N 57°40' W 001°44'8221.4
2017-Apr-14 23:34N 58°57' W 002°35'122.1
2017-Apr-14 23:30N 58°58' W 002°37'1121.5
2017-Apr-14 23:01N 59°01' W 002°57'2 1.4
2017-Apr-14 21:55N 58°60' W 002°58'0 0.0
2017-Apr-14 21:11N 58°60' W 002°58'  

Dump ship's entire track history